createdAt,value
2018-09-08T00:00:36.344Z,0.00
2018-09-08T00:01:36.313Z,0.00
2018-09-08T00:02:36.301Z,0.00
2018-09-08T00:03:36.291Z,0.00
2018-09-08T00:04:36.279Z,0.00
2018-09-08T00:05:36.288Z,0.00
2018-09-08T00:06:36.257Z,0.00
2018-09-08T00:07:36.246Z,0.00
2018-09-08T00:08:36.233Z,0.00
2018-09-08T00:09:36.224Z,0.00
2018-09-08T00:10:36.233Z,0.00
2018-09-08T00:11:36.202Z,0.00
2018-09-08T00:12:36.190Z,0.00
2018-09-08T00:13:36.178Z,0.00
2018-09-08T00:14:36.176Z,0.00
2018-09-08T00:15:36.183Z,0.00
2018-09-08T00:16:36.145Z,0.00
2018-09-08T00:17:36.134Z,0.00
2018-09-08T00:18:36.147Z,0.00
2018-09-08T00:19:36.111Z,0.00
2018-09-08T00:20:36.101Z,0.00
2018-09-08T00:21:36.089Z,0.00
2018-09-08T00:22:36.084Z,0.00
2018-09-08T00:23:36.087Z,0.00
2018-09-08T00:24:36.056Z,0.00
2018-09-08T00:25:36.045Z,0.00
2018-09-08T00:26:36.055Z,0.00
2018-09-08T00:27:36.022Z,0.00
2018-09-08T00:28:36.012Z,0.00
2018-09-08T00:29:36.001Z,0.00
2018-09-08T00:30:35.990Z,0.00
2018-09-08T00:31:36.002Z,0.00
2018-09-08T00:32:35.993Z,0.00
2018-09-08T00:33:35.959Z,0.00
2018-09-08T00:34:35.944Z,0.00
2018-09-08T00:35:35.933Z,0.00
2018-09-08T00:36:35.943Z,0.00
2018-09-08T00:37:35.910Z,0.00
2018-09-08T00:38:35.932Z,0.00
2018-09-08T00:39:35.889Z,0.00
2018-09-08T00:40:35.881Z,0.00
2018-09-08T00:41:35.889Z,0.00
2018-09-08T00:42:35.855Z,0.00
2018-09-08T00:43:35.856Z,0.00
2018-09-08T00:44:35.835Z,0.00
2018-09-08T00:45:35.822Z,0.00
2018-09-08T00:46:35.832Z,0.00
2018-09-08T00:47:35.799Z,0.00
2018-09-08T00:48:35.791Z,0.00
2018-09-08T00:49:35.777Z,0.00
2018-09-08T00:50:35.766Z,0.00
2018-09-08T00:51:35.776Z,0.00
2018-09-08T00:52:35.746Z,0.00
2018-09-08T00:53:35.733Z,0.00
2018-09-08T00:54:35.743Z,0.00
2018-09-08T00:55:35.710Z,0.00
2018-09-08T00:56:35.720Z,0.00
2018-09-08T00:57:35.706Z,0.00
2018-09-08T00:58:35.676Z,0.00
2018-09-08T00:59:35.666Z,0.00
2018-09-08T01:00:35.654Z,0.00
2018-09-08T01:01:35.665Z,0.00
2018-09-08T01:02:35.636Z,0.00
2018-09-08T01:03:35.653Z,0.00
2018-09-08T01:04:35.610Z,0.00
2018-09-08T01:05:35.603Z,0.00
2018-09-08T01:06:35.608Z,0.00
2018-09-08T01:07:35.577Z,0.00
2018-09-08T01:08:35.565Z,0.00
2018-09-08T01:09:35.554Z,0.00
2018-09-08T01:10:35.544Z,0.00
2018-09-08T01:11:35.552Z,0.00
2018-09-08T01:12:35.520Z,0.00
2018-09-08T01:13:35.509Z,0.00
2018-09-08T01:14:35.498Z,0.00
2018-09-08T01:15:35.487Z,0.00
2018-09-08T01:16:35.498Z,0.00
2018-09-08T01:17:35.469Z,0.00
2018-09-08T01:18:35.454Z,0.00
2018-09-08T01:19:35.463Z,0.00
2018-09-08T01:20:35.431Z,0.00
2018-09-08T01:21:35.441Z,0.00
2018-09-08T01:22:35.412Z,0.00
2018-09-08T01:23:35.399Z,0.00
2018-09-08T01:24:35.387Z,0.00
2018-09-08T01:25:35.376Z,0.00
2018-09-08T01:26:35.386Z,0.00
2018-09-08T01:27:35.354Z,0.00
2018-09-08T01:28:35.341Z,0.00
2018-09-08T01:29:35.330Z,0.00
2018-09-08T01:30:35.320Z,0.00
2018-09-08T01:31:35.334Z,0.00
2018-09-08T01:32:35.298Z,0.00
2018-09-08T01:33:35.286Z,0.00
2018-09-08T01:34:35.275Z,0.00
2018-09-08T01:35:35.264Z,0.00
2018-09-08T01:36:35.276Z,0.00
2018-09-08T01:37:35.243Z,0.00
2018-09-08T01:38:35.230Z,0.00
2018-09-08T01:39:35.220Z,0.00
2018-09-08T01:40:35.208Z,0.00
2018-09-08T01:41:35.218Z,0.00
2018-09-08T01:42:35.186Z,0.00
2018-09-08T01:43:35.175Z,0.00
2018-09-08T01:44:35.165Z,0.00
2018-09-08T01:45:35.152Z,0.00
2018-09-08T01:46:35.162Z,0.00
2018-09-08T01:47:35.132Z,0.00
2018-09-08T01:48:35.119Z,0.00
2018-09-08T01:49:35.108Z,0.00
2018-09-08T01:50:35.119Z,0.00
2018-09-08T01:51:35.086Z,0.00
2018-09-08T01:52:35.095Z,0.00
2018-09-08T01:53:35.064Z,0.00
2018-09-08T01:54:35.053Z,0.00
2018-09-08T01:55:35.044Z,0.00
2018-09-08T01:56:35.031Z,0.00
2018-09-08T01:57:35.040Z,0.00
2018-09-08T01:58:35.008Z,0.00
2018-09-08T01:59:34.999Z,0.00
2018-09-08T02:00:34.987Z,0.00
2018-09-08T02:01:34.975Z,0.00
2018-09-08T02:02:34.984Z,0.00
2018-09-08T02:03:34.952Z,0.00
2018-09-08T02:04:34.941Z,0.00
2018-09-08T02:05:34.929Z,0.00
2018-09-08T02:06:34.918Z,0.00
2018-09-08T02:07:34.930Z,0.00
2018-09-08T02:08:34.897Z,0.00
2018-09-08T02:09:34.889Z,0.00
2018-09-08T02:10:34.875Z,0.00
2018-09-08T02:11:34.863Z,0.00
2018-09-08T02:12:34.872Z,0.00
2018-09-08T02:13:34.840Z,0.00
2018-09-08T02:14:34.828Z,0.00
2018-09-08T02:15:34.820Z,0.00
2018-09-08T02:16:34.807Z,0.00
2018-09-08T02:17:34.820Z,0.00
2018-09-08T02:18:34.784Z,0.00
2018-09-08T02:19:34.773Z,0.00
2018-09-08T02:20:34.763Z,0.00
2018-09-08T02:21:34.751Z,0.00
2018-09-08T02:22:34.761Z,0.00
2018-09-08T02:23:34.729Z,0.00
2018-09-08T02:24:34.718Z,0.00
2018-09-08T02:25:34.708Z,0.00
2018-09-08T02:26:34.695Z,0.00
2018-09-08T02:27:34.710Z,0.00
2018-09-08T02:28:34.673Z,0.00
2018-09-08T02:29:34.663Z,0.00
2018-09-08T02:30:34.672Z,0.00
2018-09-08T02:31:34.644Z,0.00
2018-09-08T02:32:34.650Z,0.00
2018-09-08T02:33:34.619Z,0.00
2018-09-08T02:34:34.609Z,0.00
2018-09-08T02:35:34.595Z,0.00
2018-09-08T02:36:34.585Z,0.00
2018-09-08T02:37:34.593Z,0.00
2018-09-08T02:38:34.564Z,0.00
2018-09-08T02:39:34.551Z,0.00
2018-09-08T02:40:34.539Z,0.00
2018-09-08T02:41:34.530Z,0.00
2018-09-08T02:42:34.540Z,0.00
2018-09-08T02:43:34.508Z,0.00
2018-09-08T02:44:34.495Z,0.00
2018-09-08T02:45:34.483Z,0.00
2018-09-08T02:46:34.472Z,0.00
2018-09-08T02:47:34.483Z,0.00
2018-09-08T02:48:34.450Z,0.00
2018-09-08T02:49:34.439Z,0.00
2018-09-08T02:50:34.428Z,0.00
2018-09-08T02:51:34.419Z,0.00
2018-09-08T02:52:34.427Z,0.00
2018-09-08T02:53:34.395Z,0.00
2018-09-08T02:54:34.384Z,0.00
2018-09-08T02:55:34.372Z,0.00
2018-09-08T02:56:34.364Z,0.00
2018-09-08T02:57:34.371Z,0.00
2018-09-08T02:58:34.339Z,0.00
2018-09-08T02:59:34.327Z,0.00
2018-09-08T03:00:34.340Z,0.00
2018-09-08T03:01:34.310Z,0.00
2018-09-08T03:02:34.316Z,0.00
2018-09-08T03:03:34.283Z,0.00
2018-09-08T03:04:34.272Z,0.00
2018-09-08T03:05:34.262Z,0.00
2018-09-08T03:06:34.249Z,0.00
2018-09-08T03:07:34.259Z,0.00
2018-09-08T03:08:34.227Z,0.00
2018-09-08T03:09:34.217Z,0.00
2018-09-08T03:10:34.207Z,0.00
2018-09-08T03:11:34.194Z,0.00
2018-09-08T03:12:34.204Z,0.00
2018-09-08T03:13:34.171Z,0.00
2018-09-08T03:14:34.161Z,0.00
2018-09-08T03:15:34.149Z,0.00
2018-09-08T03:16:34.138Z,0.00
2018-09-08T03:17:34.147Z,0.00
2018-09-08T03:18:34.117Z,0.00
2018-09-08T03:19:34.104Z,0.00
2018-09-08T03:20:34.093Z,0.00
2018-09-08T03:21:34.112Z,0.00
2018-09-08T03:22:34.093Z,0.00
2018-09-08T03:23:34.061Z,0.00
2018-09-08T03:24:34.049Z,0.00
2018-09-08T03:25:34.038Z,0.00
2018-09-08T03:26:34.048Z,0.00
2018-09-08T03:27:34.015Z,0.00
2018-09-08T03:28:34.027Z,0.00
2018-09-08T03:29:33.993Z,0.00
2018-09-08T03:30:33.983Z,0.00
2018-09-08T03:31:33.972Z,0.00
2018-09-08T03:32:33.959Z,0.00
2018-09-08T03:33:33.971Z,0.00
2018-09-08T03:34:33.937Z,0.00
2018-09-08T03:35:33.927Z,0.00
2018-09-08T03:36:33.915Z,0.00
2018-09-08T03:37:33.906Z,0.00
2018-09-08T03:38:33.914Z,0.00
2018-09-08T03:39:33.890Z,0.00
2018-09-08T03:40:33.873Z,0.00
2018-09-08T03:41:33.859Z,0.00
2018-09-08T03:42:33.850Z,0.00
2018-09-08T03:43:33.859Z,0.00
2018-09-08T03:44:33.828Z,0.00
2018-09-08T03:45:33.815Z,0.00
2018-09-08T03:46:33.804Z,0.00
2018-09-08T03:47:33.794Z,0.00
2018-09-08T03:48:33.808Z,0.00
2018-09-08T03:49:33.769Z,0.00
2018-09-08T03:50:33.758Z,0.00
2018-09-08T03:51:33.747Z,0.00
2018-09-08T03:52:33.737Z,0.00
2018-09-08T03:53:33.748Z,0.00
2018-09-08T03:54:33.715Z,0.00
2018-09-08T03:55:33.703Z,0.00
2018-09-08T03:56:33.691Z,0.00
2018-09-08T03:57:33.680Z,0.00
2018-09-08T03:58:33.691Z,0.00
2018-09-08T03:59:33.658Z,0.00
2018-09-08T04:00:33.648Z,0.00
2018-09-08T04:01:33.635Z,0.00
2018-09-08T04:02:33.625Z,0.00
2018-09-08T04:03:33.638Z,0.00
2018-09-08T04:04:33.602Z,0.00
2018-09-08T04:05:33.627Z,0.00
2018-09-08T04:06:33.580Z,0.00
2018-09-08T04:07:33.570Z,0.00
2018-09-08T04:08:33.579Z,0.00
2018-09-08T04:09:33.549Z,0.00
2018-09-08T04:10:33.536Z,0.00
2018-09-08T04:11:33.524Z,0.00
2018-09-08T04:12:33.513Z,0.00
2018-09-08T04:13:33.524Z,0.00
2018-09-08T04:14:33.494Z,0.00
2018-09-08T04:15:33.480Z,0.00
2018-09-08T04:16:33.470Z,0.00
2018-09-08T04:17:33.458Z,0.00
2018-09-08T04:18:33.467Z,0.00
2018-09-08T04:19:33.435Z,0.00
2018-09-08T04:20:33.426Z,0.00
2018-09-08T04:21:33.415Z,0.00
2018-09-08T04:22:33.410Z,0.00
2018-09-08T04:23:33.411Z,0.00
2018-09-08T04:24:33.379Z,0.00
2018-09-08T04:25:33.368Z,0.00
2018-09-08T04:26:33.361Z,0.00
2018-09-08T04:27:33.349Z,0.00
2018-09-08T04:28:33.356Z,0.00
2018-09-08T04:29:33.355Z,0.00
2018-09-08T04:30:33.312Z,0.00
2018-09-08T04:31:33.305Z,0.00
2018-09-08T04:32:33.289Z,0.00
2018-09-08T04:33:33.300Z,0.00
2018-09-08T04:34:33.267Z,0.00
2018-09-08T04:35:33.257Z,0.00
2018-09-08T04:36:33.245Z,0.00
2018-09-08T04:37:33.234Z,0.00
2018-09-08T04:38:33.245Z,0.00
2018-09-08T04:39:33.212Z,0.00
2018-09-08T04:40:33.203Z,0.00
2018-09-08T04:41:33.190Z,0.00
2018-09-08T04:42:33.183Z,0.00
2018-09-08T04:43:33.190Z,0.00
2018-09-08T04:44:33.157Z,4.00
2018-09-08T04:45:33.145Z,4.00
2018-09-08T04:46:33.137Z,4.00
2018-09-08T04:47:33.125Z,4.00
2018-09-08T04:48:33.133Z,0.00
2018-09-08T04:49:33.101Z,4.00
2018-09-08T04:50:33.090Z,4.00
2018-09-08T04:51:33.078Z,4.00
2018-09-08T04:52:33.069Z,8.00
2018-09-08T04:53:33.077Z,4.00
2018-09-08T04:54:33.046Z,4.00
2018-09-08T04:55:33.033Z,8.00
2018-09-08T04:56:33.024Z,8.00
2018-09-08T04:57:33.012Z,12.00
2018-09-08T04:58:33.021Z,8.00
2018-09-08T04:59:32.989Z,12.00
2018-09-08T05:00:32.979Z,12.00
2018-09-08T05:01:32.968Z,12.00
2018-09-08T05:02:32.986Z,12.00
2018-09-08T05:03:32.966Z,16.00
2018-09-08T05:04:32.934Z,16.00
2018-09-08T05:05:32.922Z,16.00
2018-09-08T05:06:32.911Z,16.00
2018-09-08T05:07:32.900Z,20.00
2018-09-08T05:08:32.889Z,20.00
2018-09-08T05:09:32.902Z,20.00
2018-09-08T05:10:32.867Z,24.00
2018-09-08T05:11:32.856Z,24.00
2018-09-08T05:12:32.844Z,24.00
2018-09-08T05:13:32.833Z,24.00
2018-09-08T05:14:32.843Z,28.00
2018-09-08T05:15:32.813Z,32.00
2018-09-08T05:16:32.799Z,28.00
2018-09-08T05:17:32.790Z,32.00
2018-09-08T05:18:32.777Z,32.00
2018-09-08T05:19:32.787Z,32.00
2018-09-08T05:20:32.755Z,32.00
2018-09-08T05:21:32.748Z,36.00
2018-09-08T05:22:32.734Z,36.00
2018-09-08T05:23:32.722Z,36.00
2018-09-08T05:24:32.732Z,36.00
2018-09-08T05:25:32.699Z,40.00
2018-09-08T05:26:32.687Z,40.00
2018-09-08T05:27:32.677Z,40.00
2018-09-08T05:28:32.733Z,40.00
2018-09-08T05:29:32.678Z,44.00
2018-09-08T05:30:32.645Z,44.00
2018-09-08T05:31:32.633Z,48.00
2018-09-08T05:32:32.621Z,44.00
2018-09-08T05:33:32.611Z,44.00
2018-09-08T05:34:32.620Z,48.00
2018-09-08T05:35:32.588Z,48.00
2018-09-08T05:36:32.576Z,52.00
2018-09-08T05:37:32.588Z,52.00
2018-09-08T05:38:32.557Z,48.00
2018-09-08T05:39:32.564Z,52.00
2018-09-08T05:40:32.532Z,52.00
2018-09-08T05:41:32.522Z,52.00
2018-09-08T05:42:32.510Z,56.00
2018-09-08T05:43:32.499Z,56.00
2018-09-08T05:44:32.509Z,52.00
2018-09-08T05:45:32.476Z,56.00
2018-09-08T05:46:32.465Z,56.00
2018-09-08T05:47:32.455Z,56.00
2018-09-08T05:48:32.445Z,60.00
2018-09-08T05:49:32.454Z,60.00
2018-09-08T05:50:32.420Z,60.00
2018-09-08T05:51:32.410Z,60.00
2018-09-08T05:52:32.399Z,60.00
2018-09-08T05:53:32.388Z,60.00
2018-09-08T05:54:32.399Z,60.00
2018-09-08T05:55:32.364Z,60.00
2018-09-08T05:56:32.353Z,64.00
2018-09-08T05:57:32.363Z,64.00
2018-09-08T05:58:32.421Z,64.00
2018-09-08T05:59:32.341Z,64.00
2018-09-08T06:00:32.309Z,64.00
2018-09-08T06:01:32.298Z,64.00
2018-09-08T06:02:32.288Z,64.00
2018-09-08T06:03:32.276Z,64.00
2018-09-08T06:04:32.285Z,64.00
2018-09-08T06:05:32.254Z,64.00
2018-09-08T06:06:32.243Z,68.00
2018-09-08T06:07:32.231Z,68.00
2018-09-08T06:08:32.222Z,68.00
2018-09-08T06:09:32.229Z,68.00
2018-09-08T06:10:32.197Z,64.00
2018-09-08T06:11:32.186Z,68.00
2018-09-08T06:12:32.175Z,68.00
2018-09-08T06:13:32.165Z,68.00
2018-09-08T06:14:32.175Z,68.00
2018-09-08T06:15:32.144Z,68.00
2018-09-08T06:16:32.131Z,72.00
2018-09-08T06:17:32.119Z,72.00
2018-09-08T06:18:32.109Z,68.00
2018-09-08T06:19:32.131Z,68.00
2018-09-08T06:20:32.086Z,72.00
2018-09-08T06:21:32.074Z,72.00
2018-09-08T06:22:32.067Z,72.00
2018-09-08T06:23:32.052Z,72.00
2018-09-08T06:24:32.091Z,72.00
2018-09-08T06:25:32.071Z,72.00
2018-09-08T06:26:32.019Z,72.00
2018-09-08T06:27:32.007Z,72.00
2018-09-08T06:28:32.022Z,72.00
2018-09-08T06:29:32.009Z,76.00
2018-09-08T06:30:31.975Z,76.00
2018-09-08T06:31:31.963Z,76.00
2018-09-08T06:32:31.952Z,72.00
2018-09-08T06:33:31.967Z,72.00
2018-09-08T06:34:31.952Z,76.00
2018-09-08T06:35:31.917Z,76.00
2018-09-08T06:36:31.906Z,80.00
2018-09-08T06:37:31.895Z,76.00
2018-09-08T06:38:31.887Z,80.00
2018-09-08T06:39:31.896Z,80.00
2018-09-08T06:40:31.862Z,80.00
2018-09-08T06:41:31.851Z,80.00
2018-09-08T06:42:31.840Z,80.00
2018-09-08T06:43:31.829Z,80.00
2018-09-08T06:44:31.838Z,80.00
2018-09-08T06:45:31.807Z,80.00
2018-09-08T06:46:31.796Z,80.00
2018-09-08T06:47:31.783Z,80.00
2018-09-08T06:48:31.772Z,80.00
2018-09-08T06:49:31.784Z,80.00
2018-09-08T06:50:31.751Z,80.00
2018-09-08T06:51:31.738Z,84.00
2018-09-08T06:52:31.727Z,84.00
2018-09-08T06:53:31.738Z,84.00
2018-09-08T06:54:31.707Z,84.00
2018-09-08T06:55:31.716Z,88.00
2018-09-08T06:56:31.683Z,92.00
2018-09-08T06:57:31.673Z,92.00
2018-09-08T06:58:31.667Z,88.00
2018-09-08T06:59:31.650Z,88.00
2018-09-08T07:00:31.659Z,84.00
2018-09-08T07:01:31.626Z,84.00
2018-09-08T07:02:31.616Z,88.00
2018-09-08T07:03:31.692Z,88.00
2018-09-08T07:04:31.593Z,88.00
2018-09-08T07:05:31.603Z,88.00
2018-09-08T07:06:31.574Z,92.00
2018-09-08T07:07:31.560Z,92.00
2018-09-08T07:08:31.550Z,96.00
2018-09-08T07:09:31.537Z,100.00
2018-09-08T07:10:31.548Z,100.00
2018-09-08T07:11:31.515Z,100.00
2018-09-08T07:12:31.504Z,100.00
2018-09-08T07:13:31.494Z,100.00
2018-09-08T07:14:31.482Z,100.00
2018-09-08T07:15:31.492Z,100.00
2018-09-08T07:16:31.463Z,104.00
2018-09-08T07:17:31.449Z,108.00
2018-09-08T07:18:31.438Z,104.00
2018-09-08T07:19:31.427Z,100.00
2018-09-08T07:20:31.439Z,100.00
2018-09-08T07:21:31.405Z,96.00
2018-09-08T07:22:31.393Z,96.00
2018-09-08T07:23:31.392Z,96.00
2018-09-08T07:24:31.371Z,100.00
2018-09-08T07:25:31.380Z,108.00
2018-09-08T07:26:31.348Z,112.00
2018-09-08T07:27:31.337Z,116.00
2018-09-08T07:28:31.327Z,120.00
2018-09-08T07:29:31.314Z,128.00
2018-09-08T07:30:31.326Z,128.00
2018-09-08T07:31:31.292Z,132.00
2018-09-08T07:32:31.281Z,136.00
2018-09-08T07:33:31.270Z,132.00
2018-09-08T07:34:31.260Z,132.00
2018-09-08T07:35:31.269Z,128.00
2018-09-08T07:36:31.237Z,124.00
2018-09-08T07:37:31.226Z,124.00
2018-09-08T07:38:31.214Z,124.00
2018-09-08T07:39:31.203Z,120.00
2018-09-08T07:40:31.213Z,120.00
2018-09-08T07:41:31.181Z,124.00
2018-09-08T07:42:31.175Z,128.00
2018-09-08T07:43:31.159Z,132.00
2018-09-08T07:44:31.148Z,144.00
2018-09-08T07:45:31.158Z,156.00
2018-09-08T07:46:31.128Z,168.00
2018-09-08T07:47:31.113Z,172.00
2018-09-08T07:48:31.106Z,168.00
2018-09-08T07:49:31.095Z,168.00
2018-09-08T07:50:31.104Z,164.00
2018-09-08T07:51:31.071Z,160.00
2018-09-08T07:52:31.059Z,156.00
2018-09-08T07:53:31.169Z,156.00
2018-09-08T07:54:31.037Z,148.00
2018-09-08T07:55:31.046Z,144.00
2018-09-08T07:56:31.014Z,148.00
2018-09-08T07:57:31.003Z,144.00
2018-09-08T07:58:30.992Z,144.00
2018-09-08T07:59:30.994Z,148.00
2018-09-08T08:00:30.991Z,156.00
2018-09-08T08:01:30.958Z,168.00
2018-09-08T08:02:30.946Z,172.00
2018-09-08T08:03:30.935Z,172.00
2018-09-08T08:04:30.924Z,172.00
2018-09-08T08:05:30.934Z,180.00
2018-09-08T08:06:30.900Z,180.00
2018-09-08T08:07:30.891Z,188.00
2018-09-08T08:08:30.882Z,188.00
2018-09-08T08:09:30.869Z,188.00
2018-09-08T08:10:30.882Z,180.00
2018-09-08T08:11:30.846Z,176.00
2018-09-08T08:12:30.834Z,172.00
2018-09-08T08:13:30.823Z,176.00
2018-09-08T08:14:30.848Z,180.00
2018-09-08T08:15:30.822Z,180.00
2018-09-08T08:16:30.794Z,196.00
2018-09-08T08:17:30.783Z,212.00
2018-09-08T08:18:30.770Z,216.00
2018-09-08T08:19:30.755Z,228.00
2018-09-08T08:20:30.766Z,236.00
2018-09-08T08:21:30.733Z,236.00
2018-09-08T08:22:30.722Z,232.00
2018-09-08T08:23:30.711Z,224.00
2018-09-08T08:24:30.700Z,216.00
2018-09-08T08:25:30.711Z,204.00
2018-09-08T08:26:30.677Z,196.00
2018-09-08T08:27:30.667Z,184.00
2018-09-08T08:28:30.656Z,180.00
2018-09-08T08:29:30.643Z,176.00
2018-09-08T08:30:30.653Z,176.00
2018-09-08T08:31:30.623Z,176.00
2018-09-08T08:32:30.611Z,180.00
2018-09-08T08:33:30.599Z,184.00
2018-09-08T08:34:30.587Z,192.00
2018-09-08T08:35:30.597Z,192.00
2018-09-08T08:36:30.566Z,200.00
2018-09-08T08:37:30.554Z,216.00
2018-09-08T08:38:30.542Z,212.00
2018-09-08T08:39:30.534Z,220.00
2018-09-08T08:40:30.543Z,236.00
2018-09-08T08:41:30.509Z,224.00
2018-09-08T08:42:30.497Z,212.00
2018-09-08T08:43:30.486Z,196.00
2018-09-08T08:44:30.476Z,180.00
2018-09-08T08:45:30.485Z,176.00
2018-09-08T08:46:30.475Z,176.00
2018-09-08T08:47:30.442Z,180.00
2018-09-08T08:48:30.430Z,180.00
2018-09-08T08:49:30.418Z,188.00
2018-09-08T08:50:30.409Z,228.00
2018-09-08T08:51:30.418Z,268.00
2018-09-08T08:52:30.481Z,296.00
2018-09-08T08:53:30.375Z,304.00
2018-09-08T08:54:30.363Z,292.00
2018-09-08T08:55:30.352Z,244.00
2018-09-08T08:56:30.360Z,200.00
2018-09-08T08:57:30.330Z,164.00
2018-09-08T08:58:30.318Z,148.00
2018-09-08T08:59:30.307Z,144.00
2018-09-08T09:00:30.296Z,136.00
2018-09-08T09:01:30.307Z,132.00
2018-09-08T09:02:30.277Z,128.00
2018-09-08T09:03:30.261Z,124.00
2018-09-08T09:04:30.250Z,124.00
2018-09-08T09:05:30.239Z,124.00
2018-09-08T09:06:30.254Z,124.00
2018-09-08T09:07:30.221Z,140.00
2018-09-08T09:08:30.635Z,168.00
2018-09-08T09:09:30.196Z,196.00
2018-09-08T09:10:30.186Z,200.00
2018-09-08T09:11:30.193Z,208.00
2018-09-08T09:12:30.162Z,208.00
2018-09-08T09:13:30.210Z,204.00
2018-09-08T09:14:30.315Z,200.00
2018-09-08T09:15:30.482Z,200.00
2018-09-08T09:16:30.141Z,204.00
2018-09-08T09:17:30.108Z,208.00
2018-09-08T09:18:30.522Z,200.00
2018-09-08T09:19:30.086Z,196.00
2018-09-08T09:20:30.072Z,192.00
2018-09-08T09:21:30.081Z,184.00
2018-09-08T09:22:30.049Z,188.00
2018-09-08T09:23:30.039Z,184.00
2018-09-08T09:24:30.150Z,176.00
2018-09-08T09:25:30.018Z,172.00
2018-09-08T09:26:30.028Z,164.00
2018-09-08T09:27:29.995Z,160.00
2018-09-08T09:28:29.983Z,164.00
2018-09-08T09:29:29.971Z,164.00
2018-09-08T09:30:29.960Z,160.00
2018-09-08T09:31:29.973Z,176.00
2018-09-08T09:32:29.939Z,200.00
2018-09-08T09:33:29.926Z,220.00
2018-09-08T09:34:29.914Z,244.00
2018-09-08T09:35:29.904Z,240.00
2018-09-08T09:36:29.919Z,256.00
2018-09-08T09:37:29.963Z,240.00
2018-09-08T09:38:29.870Z,252.00
2018-09-08T09:39:29.858Z,248.00
2018-09-08T09:40:29.852Z,244.00
2018-09-08T09:41:29.857Z,244.00
2018-09-08T09:42:29.824Z,216.00
2018-09-08T09:43:29.813Z,204.00
2018-09-08T09:44:29.803Z,196.00
2018-09-08T09:45:29.792Z,188.00
2018-09-08T09:46:29.802Z,172.00
2018-09-08T09:47:29.769Z,176.00
2018-09-08T09:48:29.758Z,180.00
2018-09-08T09:49:29.746Z,180.00
2018-09-08T09:50:29.735Z,216.00
2018-09-08T09:51:29.745Z,272.00
2018-09-08T09:52:29.713Z,240.00
2018-09-08T09:53:29.701Z,240.00
2018-09-08T09:54:29.692Z,232.00
2018-09-08T09:55:29.680Z,208.00
2018-09-08T09:56:29.689Z,200.00
2018-09-08T09:57:29.656Z,196.00
2018-09-08T09:58:29.646Z,188.00
2018-09-08T09:59:29.634Z,200.00
2018-09-08T10:00:29.623Z,244.00
2018-09-08T10:01:29.633Z,308.00
2018-09-08T10:02:29.601Z,360.00
2018-09-08T10:03:29.590Z,384.00
2018-09-08T10:04:29.578Z,424.00
2018-09-08T10:05:29.566Z,420.00
2018-09-08T10:06:29.586Z,428.00
2018-09-08T10:07:29.544Z,296.00
2018-09-08T10:08:29.533Z,200.00
2018-09-08T10:09:29.523Z,152.00
2018-09-08T10:10:29.511Z,148.00
2018-09-08T10:11:29.520Z,156.00
2018-09-08T10:12:29.489Z,168.00
2018-09-08T10:13:29.479Z,192.00
2018-09-08T10:14:29.465Z,268.00
2018-09-08T10:15:29.455Z,332.00
2018-09-08T10:16:29.466Z,384.00
2018-09-08T10:17:29.432Z,424.00
2018-09-08T10:18:29.422Z,360.00
2018-09-08T10:19:29.410Z,312.00
2018-09-08T10:20:29.398Z,328.00
2018-09-08T10:21:29.407Z,312.00
2018-09-08T10:22:29.376Z,292.00
2018-09-08T10:23:29.439Z,248.00
2018-09-08T10:24:29.353Z,312.00
2018-09-08T10:25:29.343Z,460.00
2018-09-08T10:26:29.485Z,460.00
2018-09-08T10:27:29.340Z,508.00
2018-09-08T10:28:29.700Z,408.00
2018-09-08T10:29:29.474Z,396.00
2018-09-08T10:30:29.354Z,396.00
2018-09-08T10:31:29.275Z,452.00
2018-09-08T10:32:29.287Z,404.00
2018-09-08T10:33:29.251Z,396.00
2018-09-08T10:34:29.242Z,488.00
2018-09-08T10:35:29.230Z,440.00
2018-09-08T10:36:29.218Z,472.00
2018-09-08T10:37:29.231Z,396.00
2018-09-08T10:38:29.196Z,372.00
2018-09-08T10:39:29.185Z,396.00
2018-09-08T10:40:29.175Z,356.00
2018-09-08T10:41:29.169Z,296.00
2018-09-08T10:42:29.174Z,228.00
2018-09-08T10:43:29.141Z,224.00
2018-09-08T10:44:29.128Z,208.00
2018-09-08T10:45:29.116Z,236.00
2018-09-08T10:46:29.105Z,248.00
2018-09-08T10:47:29.117Z,348.00
2018-09-08T10:48:29.083Z,472.00
2018-09-08T10:49:29.076Z,476.00
2018-09-08T10:50:29.062Z,488.00
2018-09-08T10:51:29.049Z,564.00
2018-09-08T10:52:29.058Z,616.00
2018-09-08T10:53:29.027Z,712.00
2018-09-08T10:54:29.036Z,696.00
2018-09-08T10:55:29.004Z,648.00
2018-09-08T10:56:28.994Z,612.00
2018-09-08T10:57:29.004Z,616.00
2018-09-08T10:58:28.971Z,584.00
2018-09-08T10:59:28.959Z,524.00
2018-09-08T11:00:28.949Z,516.00
2018-09-08T11:01:29.065Z,544.00
2018-09-08T11:02:29.250Z,520.00
2018-09-08T11:03:28.915Z,528.00
2018-09-08T11:04:28.904Z,556.00
2018-09-08T11:05:28.894Z,488.00
2018-09-08T11:06:28.884Z,376.00
2018-09-08T11:07:28.892Z,404.00
2018-09-08T11:08:28.859Z,300.00
2018-09-08T11:09:28.849Z,252.00
2018-09-08T11:10:28.836Z,228.00
2018-09-08T11:11:28.825Z,224.00
2018-09-08T11:12:28.834Z,224.00
2018-09-08T11:13:28.807Z,224.00
2018-09-08T11:14:28.792Z,220.00
2018-09-08T11:15:28.826Z,200.00
2018-09-08T11:16:28.770Z,216.00
2018-09-08T11:17:28.781Z,220.00
2018-09-08T11:18:28.748Z,224.00
2018-09-08T11:19:28.736Z,228.00
2018-09-08T11:20:28.725Z,232.00
2018-09-08T11:21:28.713Z,232.00
2018-09-08T11:22:28.724Z,240.00
2018-09-08T11:23:28.694Z,244.00
2018-09-08T11:24:28.682Z,244.00
2018-09-08T11:25:28.669Z,244.00
2018-09-08T11:26:28.658Z,244.00
2018-09-08T11:27:28.667Z,248.00
2018-09-08T11:28:28.636Z,256.00
2018-09-08T11:29:28.624Z,264.00
2018-09-08T11:30:28.658Z,268.00
2018-09-08T11:31:28.602Z,268.00
2018-09-08T11:32:28.613Z,276.00
2018-09-08T11:33:28.580Z,276.00
2018-09-08T11:34:28.568Z,268.00
2018-09-08T11:35:28.557Z,272.00
2018-09-08T11:36:28.548Z,276.00
2018-09-08T11:37:28.555Z,356.00
2018-09-08T11:38:28.534Z,404.00
2018-09-08T11:39:28.512Z,372.00
2018-09-08T11:40:28.501Z,340.00
2018-09-08T11:41:28.489Z,424.00
2018-09-08T11:42:28.505Z,356.00
2018-09-08T11:43:28.466Z,276.00
2018-09-08T11:44:28.462Z,272.00
2018-09-08T11:45:28.445Z,256.00
2018-09-08T11:46:28.434Z,252.00
2018-09-08T11:47:28.444Z,228.00
2018-09-08T11:48:28.410Z,256.00
2018-09-08T11:49:28.450Z,248.00
2018-09-08T11:50:28.389Z,220.00
2018-09-08T11:51:28.377Z,240.00
2018-09-08T11:52:28.388Z,244.00
2018-09-08T11:53:28.355Z,244.00
2018-09-08T11:54:28.347Z,244.00
2018-09-08T11:55:28.351Z,248.00
2018-09-08T11:56:28.321Z,248.00
2018-09-08T11:57:28.331Z,252.00
2018-09-08T11:58:28.299Z,252.00
2018-09-08T11:59:28.334Z,252.00
2018-09-08T12:00:28.298Z,252.00
2018-09-08T12:01:28.267Z,248.00
2018-09-08T12:02:28.253Z,248.00
2018-09-08T12:03:28.262Z,252.00
2018-09-08T12:04:28.232Z,252.00
2018-09-08T12:05:28.220Z,252.00
2018-09-08T12:06:28.227Z,252.00
2018-09-08T12:07:28.198Z,348.00
2018-09-08T12:08:28.207Z,344.00
2018-09-08T12:09:28.175Z,324.00
2018-09-08T12:10:28.169Z,280.00
2018-09-08T12:11:28.152Z,276.00
2018-09-08T12:12:28.140Z,268.00
2018-09-08T12:13:28.150Z,268.00
2018-09-08T12:14:28.126Z,280.00
2018-09-08T12:15:28.128Z,288.00
2018-09-08T12:16:28.102Z,300.00
2018-09-08T12:17:28.086Z,328.00
2018-09-08T12:18:28.095Z,344.00
2018-09-08T12:19:28.067Z,284.00
2018-09-08T12:20:28.057Z,280.00
2018-09-08T12:21:28.043Z,284.00
2018-09-08T12:22:28.030Z,272.00
2018-09-08T12:23:28.039Z,280.00
2018-09-08T12:24:28.008Z,300.00
2018-09-08T12:25:27.996Z,308.00
2018-09-08T12:26:27.983Z,304.00
2018-09-08T12:27:27.974Z,280.00
2018-09-08T12:28:28.672Z,300.00
2018-09-08T12:29:27.955Z,304.00
2018-09-08T12:30:28.011Z,304.00
2018-09-08T12:31:27.928Z,308.00
2018-09-08T12:32:27.927Z,312.00
2018-09-08T12:33:27.929Z,312.00
2018-09-08T12:34:27.895Z,324.00
2018-09-08T12:35:27.884Z,388.00
2018-09-08T12:36:27.873Z,292.00
2018-09-08T12:37:27.863Z,320.00
2018-09-08T12:38:27.872Z,324.00
2018-09-08T12:39:27.839Z,328.00
2018-09-08T12:40:27.828Z,340.00
2018-09-08T12:41:27.822Z,344.00
2018-09-08T12:42:27.807Z,348.00
2018-09-08T12:43:27.816Z,352.00
2018-09-08T12:44:27.783Z,356.00
2018-09-08T12:45:27.772Z,364.00
2018-09-08T12:46:27.760Z,368.00
2018-09-08T12:47:27.749Z,372.00
2018-09-08T12:48:27.760Z,372.00
2018-09-08T12:49:27.728Z,380.00
2018-09-08T12:50:27.716Z,384.00
2018-09-08T12:51:27.705Z,384.00